createdAt,value
2023-03-29T00:00:31.329Z,95600.00
2023-03-29T00:01:35.689Z,95604.00
2023-03-29T00:02:32.389Z,95610.00
2023-03-29T00:03:31.372Z,95610.00
2023-03-29T00:04:31.411Z,95610.00
2023-03-29T00:05:31.307Z,95614.00
2023-03-29T00:06:31.298Z,95620.00
2023-03-29T00:07:31.306Z,95630.00
2023-03-29T00:08:31.316Z,95636.00
2023-03-29T00:09:31.272Z,95648.00
2023-03-29T00:10:31.278Z,95644.00
2023-03-29T00:11:31.263Z,95646.00
2023-03-29T00:12:31.252Z,95648.00
2023-03-29T00:13:31.246Z,95649.00
2023-03-29T00:14:31.290Z,95649.00
2023-03-29T00:15:31.330Z,95649.00
2023-03-29T00:16:31.266Z,95646.00
2023-03-29T00:17:31.256Z,95644.00
2023-03-29T00:18:31.204Z,95642.00
2023-03-29T00:19:31.228Z,95646.00
2023-03-29T00:20:31.191Z,95646.00
2023-03-29T00:21:31.190Z,95640.00
2023-03-29T00:22:31.211Z,95636.00
2023-03-29T00:23:31.215Z,95636.00
2023-03-29T00:24:31.229Z,95636.00
2023-03-29T00:25:31.236Z,95638.00
2023-03-29T00:26:31.258Z,95644.00
2023-03-29T00:27:31.230Z,95649.00
2023-03-29T00:28:31.264Z,95655.00
2023-03-29T00:29:31.294Z,95661.00
2023-03-29T00:30:31.261Z,95663.00
2023-03-29T00:31:31.319Z,95671.00
2023-03-29T00:32:31.361Z,95661.00
2023-03-29T00:33:31.308Z,95661.00
2023-03-29T00:34:31.313Z,95661.00
2023-03-29T00:35:31.372Z,95661.00
2023-03-29T00:36:31.341Z,95671.00
2023-03-29T00:37:31.344Z,95677.00
2023-03-29T00:38:31.370Z,95679.00
2023-03-29T00:39:31.407Z,95681.00
2023-03-29T00:40:31.393Z,95679.00
2023-03-29T00:41:31.419Z,95679.00
2023-03-29T00:42:31.462Z,95685.00
2023-03-29T00:43:31.454Z,95691.00
2023-03-29T00:44:31.452Z,95691.00
2023-03-29T00:45:31.466Z,95685.00
2023-03-29T00:46:31.568Z,95687.00
2023-03-29T00:47:31.522Z,95691.00
2023-03-29T00:48:31.527Z,95697.00
2023-03-29T00:49:31.531Z,95693.00
2023-03-29T00:50:31.546Z,95689.00
2023-03-29T00:51:31.554Z,95687.00
2023-03-29T00:52:31.574Z,95687.00
2023-03-29T00:53:31.614Z,95685.00
2023-03-29T00:54:31.593Z,95683.00
2023-03-29T00:55:31.627Z,95679.00
2023-03-29T00:56:31.637Z,95681.00
2023-03-29T00:57:31.731Z,95683.00
2023-03-29T00:58:31.650Z,95687.00
2023-03-29T00:59:31.704Z,95691.00
2023-03-29T01:00:31.757Z,95701.00
2023-03-29T01:01:31.711Z,95701.00
2023-03-29T01:02:31.767Z,95702.00
2023-03-29T01:03:31.779Z,95706.00
2023-03-29T01:04:31.717Z,95710.00
2023-03-29T01:05:31.738Z,95710.00
2023-03-29T01:06:31.781Z,95714.00
2023-03-29T01:07:31.767Z,95714.00
2023-03-29T01:08:31.821Z,95716.00
2023-03-29T01:09:31.762Z,95710.00
2023-03-29T01:10:31.778Z,95704.00
2023-03-29T01:11:31.817Z,95701.00
2023-03-29T01:12:31.841Z,95701.00
2023-03-29T01:13:31.836Z,95699.00
2023-03-29T01:14:31.836Z,95702.00
2023-03-29T01:15:31.893Z,95704.00
2023-03-29T01:16:31.896Z,95706.00
2023-03-29T01:17:31.966Z,95704.00
2023-03-29T01:18:31.871Z,95701.00
2023-03-29T01:19:31.907Z,95697.00
2023-03-29T01:20:31.896Z,95693.00
2023-03-29T01:21:31.910Z,95693.00
2023-03-29T01:22:31.947Z,95685.00
2023-03-29T01:23:31.976Z,95683.00
2023-03-29T01:24:31.981Z,95687.00
2023-03-29T01:25:31.985Z,95691.00
2023-03-29T01:26:31.990Z,95695.00
2023-03-29T01:27:32.017Z,95697.00
2023-03-29T01:28:32.035Z,95695.00
2023-03-29T01:29:32.032Z,95691.00
2023-03-29T01:30:32.041Z,95691.00
2023-03-29T01:31:32.109Z,95691.00
2023-03-29T01:32:32.119Z,95693.00
2023-03-29T01:33:32.100Z,95687.00
2023-03-29T01:34:32.107Z,95687.00
2023-03-29T01:35:32.144Z,95689.00
2023-03-29T01:36:32.124Z,95693.00
2023-03-29T01:37:32.148Z,95699.00
2023-03-29T01:38:32.139Z,95697.00
2023-03-29T01:39:32.161Z,95697.00
2023-03-29T01:40:32.256Z,95697.00
2023-03-29T01:41:32.188Z,95695.00
2023-03-29T01:42:32.212Z,95691.00
2023-03-29T01:43:32.206Z,95685.00
2023-03-29T01:44:32.216Z,95679.00
2023-03-29T01:45:32.249Z,95677.00
2023-03-29T01:46:32.346Z,95677.00
2023-03-29T01:47:32.370Z,95677.00
2023-03-29T01:48:32.311Z,95677.00
2023-03-29T01:49:32.325Z,95677.00
2023-03-29T01:50:32.368Z,95677.00
2023-03-29T01:51:32.368Z,95675.00
2023-03-29T01:52:32.388Z,95677.00
2023-03-29T01:53:32.436Z,95675.00
2023-03-29T01:54:32.428Z,95677.00
2023-03-29T01:55:32.425Z,95677.00
2023-03-29T01:56:32.463Z,95675.00
2023-03-29T01:57:32.522Z,95673.00
2023-03-29T01:58:32.530Z,95675.00
2023-03-29T01:59:32.521Z,95677.00
2023-03-29T02:00:32.546Z,95679.00
2023-03-29T02:01:32.717Z,95675.00
2023-03-29T02:02:32.642Z,95673.00
2023-03-29T02:03:32.669Z,95675.00
2023-03-29T02:04:32.650Z,95681.00
2023-03-29T02:05:32.650Z,95679.00
2023-03-29T02:06:32.676Z,95673.00
2023-03-29T02:07:32.697Z,95671.00
2023-03-29T02:08:32.731Z,95661.00
2023-03-29T02:09:32.763Z,95661.00
2023-03-29T02:10:32.778Z,95655.00
2023-03-29T02:11:32.771Z,95659.00
2023-03-29T02:12:32.753Z,95661.00
2023-03-29T02:13:32.826Z,95655.00
2023-03-29T02:14:32.844Z,95655.00
2023-03-29T02:15:32.867Z,95648.00
2023-03-29T02:16:32.868Z,95646.00
2023-03-29T02:17:32.926Z,95649.00
2023-03-29T02:18:32.925Z,95648.00
2023-03-29T02:19:32.949Z,95646.00
2023-03-29T02:20:33.009Z,95648.00
2023-03-29T02:21:32.990Z,95644.00
2023-03-29T02:22:32.996Z,95642.00
2023-03-29T02:23:33.018Z,95640.00
2023-03-29T02:24:33.053Z,95638.00
2023-03-29T02:25:33.081Z,95640.00
2023-03-29T02:26:33.094Z,95642.00
2023-03-29T02:27:33.086Z,95640.00
2023-03-29T02:28:33.141Z,95642.00
2023-03-29T02:29:33.151Z,95640.00
2023-03-29T02:30:33.176Z,95640.00
2023-03-29T02:31:33.272Z,95636.00
2023-03-29T02:32:33.242Z,95640.00
2023-03-29T02:33:33.258Z,95636.00
2023-03-29T02:34:33.287Z,95638.00
2023-03-29T02:35:33.369Z,95638.00
2023-03-29T02:36:33.354Z,95644.00
2023-03-29T02:37:33.364Z,95646.00
2023-03-29T02:38:33.364Z,95648.00
2023-03-29T02:39:33.396Z,95646.00
2023-03-29T02:40:33.432Z,95644.00
2023-03-29T02:41:33.435Z,95644.00
2023-03-29T02:42:33.474Z,95642.00
2023-03-29T02:43:33.475Z,95646.00
2023-03-29T02:44:33.506Z,95644.00
2023-03-29T02:45:33.532Z,95644.00
2023-03-29T02:46:33.546Z,95638.00
2023-03-29T02:47:33.611Z,95638.00
2023-03-29T02:48:33.594Z,95636.00
2023-03-29T02:49:33.602Z,95636.00
2023-03-29T02:50:33.637Z,95636.00
2023-03-29T02:51:33.664Z,95630.00
2023-03-29T02:52:33.691Z,95630.00
2023-03-29T02:53:33.694Z,95626.00
2023-03-29T02:54:33.747Z,95620.00
2023-03-29T02:55:33.747Z,95620.00
2023-03-29T02:56:33.808Z,95618.00
2023-03-29T02:57:33.811Z,95616.00
2023-03-29T02:58:33.854Z,95614.00
2023-03-29T02:59:33.853Z,95616.00
2023-03-29T03:00:33.899Z,95616.00
2023-03-29T03:01:33.953Z,95618.00
2023-03-29T03:02:34.051Z,95616.00
2023-03-29T03:03:34.141Z,95620.00
2023-03-29T03:04:33.984Z,95620.00
2023-03-29T03:05:33.997Z,95620.00
2023-03-29T03:06:34.034Z,95622.00
2023-03-29T03:07:34.066Z,95616.00
2023-03-29T03:08:34.095Z,95612.00
2023-03-29T03:09:34.136Z,95608.00
2023-03-29T03:10:34.124Z,95610.00
2023-03-29T03:11:34.155Z,95616.00
2023-03-29T03:12:34.204Z,95616.00
2023-03-29T03:13:34.227Z,95616.00
2023-03-29T03:14:34.266Z,95616.00
2023-03-29T03:15:34.264Z,95616.00
2023-03-29T03:16:34.391Z,95614.00
2023-03-29T03:17:34.364Z,95614.00
2023-03-29T03:18:34.357Z,95618.00
2023-03-29T03:19:34.355Z,95618.00
2023-03-29T03:20:34.410Z,95618.00
2023-03-29T03:21:34.429Z,95618.00
2023-03-29T03:22:34.469Z,95622.00
2023-03-29T03:23:34.511Z,95622.00
2023-03-29T03:24:34.537Z,95622.00
2023-03-29T03:25:34.595Z,95622.00
2023-03-29T03:26:34.592Z,95624.00
2023-03-29T03:27:34.641Z,95628.00
2023-03-29T03:28:34.667Z,95632.00
2023-03-29T03:29:34.689Z,95634.00
2023-03-29T03:30:34.766Z,95634.00
2023-03-29T03:31:34.799Z,95640.00
2023-03-29T03:32:34.781Z,95644.00
2023-03-29T03:33:34.819Z,95644.00
2023-03-29T03:34:34.789Z,95642.00
2023-03-29T03:35:34.876Z,95646.00
2023-03-29T03:36:34.875Z,95648.00
2023-03-29T03:37:34.889Z,95649.00
2023-03-29T03:38:34.932Z,95649.00
2023-03-29T03:39:34.961Z,95651.00
2023-03-29T03:40:35.001Z,95655.00
2023-03-29T03:41:35.001Z,95657.00
2023-03-29T03:42:35.040Z,95659.00
2023-03-29T03:43:35.073Z,95663.00
2023-03-29T03:44:35.082Z,95663.00
2023-03-29T03:45:35.159Z,95663.00
2023-03-29T03:46:35.168Z,95661.00
2023-03-29T03:47:35.225Z,95659.00
2023-03-29T03:48:35.201Z,95659.00
2023-03-29T03:49:35.242Z,95653.00
2023-03-29T03:50:35.303Z,95649.00
2023-03-29T03:51:35.276Z,95648.00
2023-03-29T03:52:35.350Z,95646.00
2023-03-29T03:53:35.366Z,95646.00
2023-03-29T03:54:35.418Z,95646.00
2023-03-29T03:55:35.419Z,95642.00
2023-03-29T03:56:35.461Z,95638.00
2023-03-29T03:57:35.505Z,95638.00
2023-03-29T03:58:35.552Z,95638.00
2023-03-29T03:59:35.566Z,95634.00
2023-03-29T04:00:35.563Z,95632.00
2023-03-29T04:01:35.688Z,95638.00
2023-03-29T04:02:35.699Z,95634.00
2023-03-29T04:03:35.741Z,95638.00
2023-03-29T04:04:35.725Z,95636.00
2023-03-29T04:05:35.757Z,95630.00
2023-03-29T04:06:35.775Z,95630.00
2023-03-29T04:07:35.823Z,95634.00
2023-03-29T04:08:35.823Z,95626.00
2023-03-29T04:09:35.877Z,95628.00
2023-03-29T04:10:35.896Z,95626.00
2023-03-29T04:11:35.899Z,95630.00
2023-03-29T04:12:35.951Z,95624.00
2023-03-29T04:13:35.958Z,95622.00
2023-03-29T04:14:36.001Z,95616.00
2023-03-29T04:15:36.048Z,95616.00
2023-03-29T04:16:36.039Z,95608.00
2023-03-29T04:17:36.153Z,95606.00
2023-03-29T04:18:36.264Z,95606.00
2023-03-29T04:19:36.126Z,95604.00
2023-03-29T04:20:36.176Z,95602.00
2023-03-29T04:21:36.195Z,95602.00
2023-03-29T04:22:36.216Z,95598.00
2023-03-29T04:23:36.286Z,95591.00
2023-03-29T04:24:36.269Z,95589.00
2023-03-29T04:25:36.300Z,95591.00
2023-03-29T04:26:36.378Z,95593.00
2023-03-29T04:27:36.367Z,95596.00
2023-03-29T04:28:36.396Z,95596.00
2023-03-29T04:29:36.417Z,95598.00
2023-03-29T04:30:36.483Z,95600.00
2023-03-29T04:31:36.549Z,95602.00
2023-03-29T04:32:36.562Z,95596.00
2023-03-29T04:33:36.580Z,95594.00
2023-03-29T04:34:36.556Z,95596.00
2023-03-29T04:35:36.636Z,95594.00
2023-03-29T04:36:36.643Z,95585.00
2023-03-29T04:37:36.672Z,95573.00
2023-03-29T04:38:36.720Z,95571.00
2023-03-29T04:39:37.317Z,95579.00
2023-03-29T04:40:36.783Z,95581.00
2023-03-29T04:41:36.801Z,95579.00
2023-03-29T04:42:36.809Z,95581.00
2023-03-29T04:43:37.846Z,95581.00
2023-03-29T04:44:36.918Z,95577.00
2023-03-29T04:45:36.812Z,95571.00
2023-03-29T04:46:36.902Z,95563.00
2023-03-29T04:47:36.850Z,95559.00
2023-03-29T04:48:36.804Z,95555.00
2023-03-29T04:49:36.794Z,95561.00
2023-03-29T04:50:36.786Z,95563.00
2023-03-29T04:51:36.794Z,95567.00
2023-03-29T04:52:36.788Z,95563.00
2023-03-29T04:53:36.770Z,95563.00
2023-03-29T04:54:36.769Z,95565.00
2023-03-29T04:55:36.769Z,95563.00
2023-03-29T04:56:36.775Z,95561.00
2023-03-29T04:57:36.748Z,95563.00
2023-03-29T04:58:36.765Z,95561.00
2023-03-29T04:59:36.735Z,95557.00
2023-03-29T05:00:43.736Z,95557.00
2023-03-29T05:01:36.778Z,95555.00
2023-03-29T05:02:36.803Z,95559.00
2023-03-29T05:03:36.712Z,95561.00
2023-03-29T05:04:36.817Z,95563.00
2023-03-29T05:05:36.725Z,95563.00
2023-03-29T05:06:36.713Z,95559.00
2023-03-29T05:07:36.698Z,95555.00
2023-03-29T05:08:36.682Z,95555.00
2023-03-29T05:09:36.690Z,95554.00
2023-03-29T05:10:36.659Z,95554.00
2023-03-29T05:11:36.660Z,95552.00
2023-03-29T05:12:36.672Z,95555.00
2023-03-29T05:13:36.673Z,95552.00
2023-03-29T05:14:36.640Z,95550.00
2023-03-29T05:15:36.666Z,95552.00
2023-03-29T05:17:55.670Z,95542.00
2023-03-29T05:18:55.634Z,95544.00
2023-03-29T05:19:55.675Z,95542.00
2023-03-29T05:20:55.700Z,95540.00
2023-03-29T05:21:55.774Z,95542.00
2023-03-29T05:22:55.823Z,95540.00
2023-03-29T05:23:55.886Z,95544.00
2023-03-29T05:24:55.897Z,95544.00
2023-03-29T05:25:55.959Z,95542.00
2023-03-29T05:26:55.993Z,95538.00
2023-03-29T05:27:56.024Z,95532.00
2023-03-29T05:28:56.096Z,95532.00
2023-03-29T05:29:56.126Z,95534.00
2023-03-29T05:30:56.154Z,95530.00
2023-03-29T05:31:56.257Z,95542.00
2023-03-29T05:32:56.265Z,95546.00
2023-03-29T05:33:56.310Z,95542.00
2023-03-29T05:34:56.323Z,95540.00
2023-03-29T05:35:56.399Z,95536.00
2023-03-29T05:36:56.384Z,95536.00
2023-03-29T05:37:56.497Z,95538.00
2023-03-29T05:38:56.516Z,95542.00
2023-03-29T05:40:05.617Z,95542.00
2023-03-29T05:40:57.547Z,95542.00
2023-03-29T05:41:56.568Z,95544.00
2023-03-29T05:42:56.580Z,95542.00
2023-03-29T05:43:56.720Z,95542.00
2023-03-29T05:44:56.608Z,95540.00
2023-03-29T05:46:03.637Z,95538.00
2023-03-29T05:46:57.581Z,95538.00
2023-03-29T05:47:56.610Z,95534.00
2023-03-29T05:48:56.771Z,95540.00
2023-03-29T05:49:56.523Z,95540.00
2023-03-29T05:50:56.517Z,95542.00
2023-03-29T05:51:56.480Z,95542.00
2023-03-29T05:52:56.516Z,95538.00
2023-03-29T05:53:56.467Z,95536.00
2023-03-29T05:54:56.464Z,95536.00
2023-03-29T05:55:56.469Z,95548.00
2023-03-29T05:56:56.509Z,95548.00
2023-03-29T05:57:56.473Z,95554.00
2023-03-29T05:58:56.440Z,95554.00
2023-03-29T05:59:56.442Z,95552.00
2023-03-29T06:00:56.446Z,95552.00
2023-03-29T06:01:56.511Z,95550.00
2023-03-29T06:03:01.316Z,95550.00
2023-03-29T06:03:57.542Z,95550.00
2023-03-29T06:04:56.758Z,95550.00
2023-03-29T06:05:56.420Z,95548.00
2023-03-29T06:06:56.372Z,95548.00
2023-03-29T06:07:56.606Z,95548.00
2023-03-29T06:08:56.348Z,95550.00
2023-03-29T06:09:56.410Z,95554.00
2023-03-29T06:10:56.333Z,95557.00
2023-03-29T06:11:56.443Z,95555.00
2023-03-29T06:12:56.381Z,95559.00
2023-03-29T06:13:56.321Z,95565.00
2023-03-29T06:14:56.298Z,95565.00
2023-03-29T06:15:56.358Z,95573.00
2023-03-29T06:16:56.330Z,95571.00
2023-03-29T06:17:56.429Z,95569.00
2023-03-29T06:18:56.299Z,95567.00
2023-03-29T06:19:56.383Z,95565.00
2023-03-29T06:20:56.320Z,95561.00
2023-03-29T06:21:56.282Z,95561.00
2023-03-29T06:22:56.298Z,95565.00
2023-03-29T06:23:56.317Z,95565.00
2023-03-29T06:24:56.771Z,95563.00
2023-03-29T06:25:56.318Z,95565.00
2023-03-29T06:26:56.266Z,95565.00
2023-03-29T06:27:56.263Z,95569.00
2023-03-29T06:28:56.267Z,95569.00
2023-03-29T06:29:56.758Z,95567.00
2023-03-29T06:30:56.466Z,95567.00
2023-03-29T06:31:56.228Z,95567.00
2023-03-29T06:32:56.293Z,95565.00
2023-03-29T06:33:56.220Z,95571.00
2023-03-29T06:34:56.200Z,95571.00
2023-03-29T06:35:56.231Z,95575.00
2023-03-29T06:36:56.197Z,95573.00
2023-03-29T06:37:56.194Z,95573.00
2023-03-29T06:38:56.212Z,95575.00
2023-03-29T06:39:56.240Z,95575.00
2023-03-29T06:40:56.158Z,95577.00
2023-03-29T06:41:56.141Z,95577.00
2023-03-29T06:42:56.181Z,95579.00
2023-03-29T06:43:56.128Z,95585.00
2023-03-29T06:44:56.307Z,95589.00
2023-03-29T06:45:56.153Z,95593.00
2023-03-29T06:46:56.173Z,95594.00
2023-03-29T06:47:56.339Z,95593.00
2023-03-29T06:48:56.215Z,95591.00
2023-03-29T06:49:56.124Z,95593.00
2023-03-29T06:50:56.111Z,95593.00
2023-03-29T06:51:56.130Z,95593.00
2023-03-29T06:52:56.127Z,95591.00
2023-03-29T06:53:56.159Z,95591.00
2023-03-29T06:54:56.162Z,95591.00
2023-03-29T06:55:56.154Z,95589.00
2023-03-29T06:56:56.193Z,95587.00
2023-03-29T06:57:56.128Z,95589.00
2023-03-29T06:58:56.145Z,95591.00
2023-03-29T06:59:56.148Z,95591.00
2023-03-29T07:00:56.132Z,95589.00
2023-03-29T07:01:56.174Z,95589.00
2023-03-29T07:02:56.242Z,95589.00
2023-03-29T07:03:56.191Z,95585.00
2023-03-29T07:04:56.246Z,95583.00
2023-03-29T07:05:56.224Z,95585.00
2023-03-29T07:06:56.206Z,95583.00
2023-03-29T07:07:56.239Z,95583.00
2023-03-29T07:08:56.237Z,95587.00
2023-03-29T07:09:56.232Z,95583.00
2023-03-29T07:10:56.258Z,95583.00
2023-03-29T07:11:56.265Z,95585.00
2023-03-29T07:12:56.338Z,95593.00
2023-03-29T07:13:56.336Z,95594.00
2023-03-29T07:14:56.754Z,95598.00
2023-03-29T07:15:56.504Z,95596.00
2023-03-29T07:16:56.398Z,95594.00
2023-03-29T07:17:56.420Z,95593.00
2023-03-29T07:18:56.471Z,95593.00
2023-03-29T07:19:56.460Z,95593.00
2023-03-29T07:20:56.500Z,95596.00
2023-03-29T07:21:56.500Z,95594.00
2023-03-29T07:22:56.541Z,95593.00
2023-03-29T07:23:56.560Z,95591.00
2023-03-29T07:24:56.561Z,95589.00
2023-03-29T07:25:56.596Z,95589.00
2023-03-29T07:27:04.243Z,95591.00
2023-03-29T07:27:57.598Z,95589.00
2023-03-29T07:28:56.571Z,95591.00
2023-03-29T07:29:56.592Z,95589.00
2023-03-29T07:30:56.590Z,95589.00
2023-03-29T07:31:56.556Z,95591.00
2023-03-29T07:32:56.628Z,95591.00
2023-03-29T07:33:56.651Z,95591.00
2023-03-29T07:34:56.572Z,95589.00
2023-03-29T07:35:56.540Z,95593.00
2023-03-29T07:36:56.546Z,95594.00
2023-03-29T07:37:56.528Z,95593.00
2023-03-29T07:38:56.538Z,95591.00
2023-03-29T07:39:56.517Z,95594.00
2023-03-29T07:40:56.498Z,95596.00
2023-03-29T07:41:56.538Z,95594.00
2023-03-29T07:42:56.537Z,95591.00
2023-03-29T07:43:56.468Z,95594.00
2023-03-29T07:44:56.762Z,95593.00
2023-03-29T07:45:56.489Z,95593.00
2023-03-29T07:46:56.482Z,95593.00
2023-03-29T07:47:56.608Z,95591.00
2023-03-29T07:48:56.533Z,95589.00
2023-03-29T07:49:56.527Z,95589.00
2023-03-29T07:50:56.517Z,95587.00
2023-03-29T07:51:56.542Z,95585.00
2023-03-29T07:52:56.564Z,95585.00
2023-03-29T07:53:56.613Z,95587.00
2023-03-29T07:54:56.608Z,95587.00
2023-03-29T07:55:56.575Z,95587.00
2023-03-29T07:56:56.668Z,95589.00
2023-03-29T07:57:56.627Z,95589.00
2023-03-29T07:58:56.631Z,95587.00
2023-03-29T07:59:56.609Z,95587.00
2023-03-29T08:00:56.641Z,95594.00
2023-03-29T08:01:56.593Z,95594.00
2023-03-29T08:02:56.735Z,95596.00
2023-03-29T08:03:56.793Z,95593.00
2023-03-29T08:04:56.705Z,95587.00
2023-03-29T08:05:56.640Z,95587.00
2023-03-29T08:06:56.948Z,95587.00
2023-03-29T08:07:56.632Z,95587.00
2023-03-29T08:08:56.655Z,95591.00
2023-03-29T08:09:56.624Z,95593.00
2023-03-29T08:10:56.652Z,95587.00
2023-03-29T08:11:56.657Z,95585.00
2023-03-29T08:12:56.621Z,95593.00
2023-03-29T08:13:56.630Z,95594.00
2023-03-29T08:14:56.658Z,95596.00
2023-03-29T08:15:56.625Z,95594.00
2023-03-29T08:16:56.716Z,95594.00
2023-03-29T08:17:56.739Z,95596.00
2023-03-29T08:18:56.756Z,95596.00
2023-03-29T08:19:56.925Z,95596.00
2023-03-29T08:20:56.651Z,95594.00
2023-03-29T08:21:56.580Z,95593.00
2023-03-29T08:22:56.824Z,95591.00
2023-03-29T08:23:56.596Z,95593.00
2023-03-29T08:24:56.609Z,95593.00
2023-03-29T08:25:56.613Z,95593.00
2023-03-29T08:26:57.268Z,95591.00
2023-03-29T08:27:57.627Z,95589.00
2023-03-29T08:28:56.717Z,95593.00
2023-03-29T08:29:56.643Z,95594.00
2023-03-29T08:30:56.677Z,95594.00
2023-03-29T08:31:56.629Z,95596.00
2023-03-29T08:32:56.668Z,95598.00
2023-03-29T08:33:56.649Z,95600.00
2023-03-29T08:34:56.795Z,95598.00
2023-03-29T08:35:56.796Z,95600.00
2023-03-29T08:36:56.616Z,95600.00
2023-03-29T08:37:56.619Z,95602.00
2023-03-29T08:38:56.623Z,95610.00
2023-03-29T08:39:56.624Z,95606.00
2023-03-29T08:40:56.623Z,95608.00
2023-03-29T08:41:56.621Z,95608.00
2023-03-29T08:42:56.597Z,95608.00
2023-03-29T08:43:56.631Z,95614.00
2023-03-29T08:44:56.642Z,95618.00
2023-03-29T08:45:56.642Z,95624.00
2023-03-29T08:46:56.640Z,95626.00
2023-03-29T08:47:56.661Z,95626.00
2023-03-29T08:48:56.669Z,95624.00
2023-03-29T08:49:56.678Z,95624.00
2023-03-29T08:50:56.613Z,95616.00
2023-03-29T08:51:56.614Z,95620.00
2023-03-29T08:52:56.634Z,95624.00
2023-03-29T08:53:56.598Z,95620.00
2023-03-29T08:54:56.702Z,95616.00
2023-03-29T08:55:56.610Z,95620.00
2023-03-29T08:56:56.681Z,95624.00
2023-03-29T08:57:57.203Z,95622.00
2023-03-29T08:58:56.633Z,95622.00
2023-03-29T08:59:56.597Z,95618.00
2023-03-29T09:00:56.611Z,95618.00
2023-03-29T09:01:56.634Z,95614.00
2023-03-29T09:02:56.722Z,95616.00
2023-03-29T09:03:57.357Z,95616.00
2023-03-29T09:04:56.628Z,95616.00
2023-03-29T09:05:56.686Z,95618.00
2023-03-29T09:06:56.662Z,95616.00
2023-03-29T09:07:56.693Z,95612.00
2023-03-29T09:08:56.730Z,95614.00
2023-03-29T09:09:56.762Z,95624.00
2023-03-29T09:10:56.766Z,95626.00
2023-03-29T09:11:56.755Z,95608.00
2023-03-29T09:12:56.936Z,95616.00
2023-03-29T09:13:56.843Z,95622.00
2023-03-29T09:14:57.294Z,95618.00
2023-03-29T09:15:56.947Z,95614.00
2023-03-29T09:16:56.856Z,95616.00
2023-03-29T09:17:56.929Z,95616.00
2023-03-29T09:18:56.893Z,95616.00
2023-03-29T09:19:56.934Z,95612.00
2023-03-29T09:20:56.963Z,95612.00
2023-03-29T09:21:56.972Z,95612.00
2023-03-29T09:22:56.900Z,95614.00
2023-03-29T09:23:56.900Z,95612.00
2023-03-29T09:24:56.881Z,95612.00
2023-03-29T09:25:56.923Z,95614.00
2023-03-29T09:26:56.889Z,95612.00
2023-03-29T09:27:56.876Z,95612.00
2023-03-29T09:28:56.870Z,95616.00
2023-03-29T09:29:56.872Z,95610.00
2023-03-29T09:30:57.291Z,95612.00
2023-03-29T09:31:56.983Z,95612.00
2023-03-29T09:32:56.939Z,95612.00
2023-03-29T09:33:56.871Z,95610.00
2023-03-29T09:34:56.904Z,95610.00
2023-03-29T09:35:56.989Z,95614.00
2023-03-29T09:36:56.907Z,95616.00
2023-03-29T09:37:56.905Z,95618.00
2023-03-29T09:38:56.920Z,95610.00
2023-03-29T09:39:56.906Z,95610.00
2023-03-29T09:40:57.378Z,95608.00
2023-03-29T09:41:56.926Z,95606.00
2023-03-29T09:42:56.932Z,95606.00
2023-03-29T09:43:56.966Z,95606.00
2023-03-29T09:44:56.943Z,95600.00
2023-03-29T09:45:56.976Z,95598.00
2023-03-29T09:46:56.963Z,95598.00
2023-03-29T09:47:57.095Z,95596.00
2023-03-29T09:48:56.967Z,95602.00
2023-03-29T09:49:56.995Z,95604.00
2023-03-29T09:50:56.987Z,95602.00
2023-03-29T09:51:57.028Z,95600.00
2023-03-29T09:52:57.025Z,95598.00
2023-03-29T09:53:57.057Z,95596.00
2023-03-29T09:54:57.044Z,95596.00
2023-03-29T09:55:57.079Z,95594.00
2023-03-29T09:56:57.190Z,95598.00
2023-03-29T09:57:57.124Z,95596.00
2023-03-29T09:58:57.128Z,95596.00
2023-03-29T09:59:57.106Z,95596.00
2023-03-29T10:00:57.406Z,95593.00
2023-03-29T10:01:57.165Z,95593.00
2023-03-29T10:02:57.243Z,95593.00
2023-03-29T10:03:57.223Z,95589.00
2023-03-29T10:04:57.934Z,95587.00
2023-03-29T10:05:57.378Z,95583.00
2023-03-29T10:06:57.193Z,95581.00
2023-03-29T10:07:57.224Z,95581.00
2023-03-29T10:08:57.221Z,95581.00
2023-03-29T10:09:57.230Z,95581.00
2023-03-29T10:10:57.227Z,95577.00
2023-03-29T10:11:57.227Z,95577.00
2023-03-29T10:12:57.277Z,95575.00
2023-03-29T10:13:57.281Z,95573.00
2023-03-29T10:14:57.314Z,95569.00
2023-03-29T10:15:57.304Z,95567.00
2023-03-29T10:16:57.394Z,95565.00
2023-03-29T10:17:57.398Z,95567.00
2023-03-29T10:18:57.335Z,95567.00
2023-03-29T10:19:57.368Z,95567.00
2023-03-29T10:20:57.448Z,95569.00
2023-03-29T10:21:57.410Z,95565.00
2023-03-29T10:22:57.419Z,95565.00
2023-03-29T10:23:57.425Z,95569.00
2023-03-29T10:24:57.428Z,95567.00
2023-03-29T10:25:57.560Z,95569.00
2023-03-29T10:26:57.445Z,95569.00
2023-03-29T10:27:57.460Z,95569.00
2023-03-29T10:28:57.588Z,95565.00
2023-03-29T10:29:57.515Z,95567.00
2023-03-29T10:30:57.912Z,95567.00
2023-03-29T10:31:57.537Z,95571.00
2023-03-29T10:32:57.581Z,95567.00
2023-03-29T10:33:57.537Z,95571.00
2023-03-29T10:34:57.616Z,95567.00
2023-03-29T10:35:57.895Z,95563.00
2023-03-29T10:36:57.561Z,95563.00
2023-03-29T10:37:57.562Z,95569.00
2023-03-29T10:38:57.565Z,95569.00
2023-03-29T10:39:57.572Z,95569.00
2023-03-29T10:40:57.595Z,95569.00
2023-03-29T10:41:57.598Z,95569.00
2023-03-29T10:42:57.589Z,95567.00
2023-03-29T10:43:57.592Z,95567.00
2023-03-29T10:44:57.645Z,95561.00
2023-03-29T10:45:57.638Z,95561.00
2023-03-29T10:46:57.643Z,95565.00
2023-03-29T10:47:57.714Z,95565.00
2023-03-29T10:48:57.631Z,95567.00
2023-03-29T10:49:57.660Z,95563.00
2023-03-29T10:50:57.856Z,95565.00
2023-03-29T10:51:57.668Z,95563.00
2023-03-29T10:52:57.666Z,95567.00
2023-03-29T10:53:57.692Z,95565.00
2023-03-29T10:54:57.671Z,95561.00
2023-03-29T10:55:57.676Z,95561.00
2023-03-29T10:56:57.812Z,95561.00
2023-03-29T10:57:57.693Z,95563.00
2023-03-29T10:58:57.711Z,95565.00
2023-03-29T10:59:57.672Z,95565.00
2023-03-29T11:00:57.686Z,95559.00
2023-03-29T11:01:57.746Z,95559.00
2023-03-29T11:02:57.740Z,95557.00
2023-03-29T11:03:57.748Z,95559.00
2023-03-29T11:04:57.700Z,95561.00
2023-03-29T11:05:57.724Z,95563.00
2023-03-29T11:06:57.718Z,95561.00
2023-03-29T11:07:57.739Z,95563.00
2023-03-29T11:08:57.702Z,95561.00
2023-03-29T11:09:57.710Z,95563.00
2023-03-29T11:10:57.759Z,95559.00
2023-03-29T11:12:08.535Z,95559.00
2023-03-29T11:12:58.725Z,95555.00
2023-03-29T11:13:59.885Z,95554.00
2023-03-29T11:14:57.708Z,95554.00
2023-03-29T11:15:57.729Z,95554.00
2023-03-29T11:16:57.704Z,95550.00
2023-03-29T11:17:57.733Z,95548.00
2023-03-29T11:18:57.706Z,95546.00
2023-03-29T11:19:57.700Z,95548.00
2023-03-29T11:20:57.856Z,95544.00
2023-03-29T11:21:57.680Z,95538.00
2023-03-29T11:22:57.690Z,95542.00
2023-03-29T11:23:57.726Z,95540.00
2023-03-29T11:24:57.799Z,95536.00
2023-03-29T11:25:57.904Z,95534.00
2023-03-29T11:26:57.753Z,95532.00
2023-03-29T11:27:57.730Z,95534.00
2023-03-29T11:28:57.728Z,95534.00
2023-03-29T11:29:57.743Z,95534.00
2023-03-29T11:30:57.983Z,95530.00
2023-03-29T11:31:57.827Z,95536.00
2023-03-29T11:32:57.782Z,95532.00
2023-03-29T11:33:57.745Z,95532.00
2023-03-29T11:34:57.805Z,95532.00
2023-03-29T11:35:57.852Z,95532.00
2023-03-29T11:36:57.862Z,95532.00
2023-03-29T11:37:57.773Z,95530.00
2023-03-29T11:38:57.772Z,95528.00
2023-03-29T11:39:57.744Z,95528.00
2023-03-29T11:40:57.709Z,95530.00
2023-03-29T11:41:57.757Z,95530.00
2023-03-29T11:42:57.763Z,95528.00
2023-03-29T11:43:57.759Z,95526.00
2023-03-29T11:44:57.810Z,95526.00
2023-03-29T11:45:57.755Z,95526.00